sensor_id;sensor_type;location;lat;lon;timestamp;P1;durP1;ratioP1;P2;durP2;ratioP2
13208;SDS011;6669;42.678;23.332;2023-07-08T00:00:22;8.63;;;7.72;;
13208;SDS011;6669;42.678;23.332;2023-07-08T00:02:51;8.40;;;6.85;;
13208;SDS011;6669;42.678;23.332;2023-07-08T00:05:20;8.57;;;7.53;;
13208;SDS011;6669;42.678;23.332;2023-07-08T00:07:50;9.25;;;7.80;;
13208;SDS011;6669;42.678;23.332;2023-07-08T00:10:20;9.90;;;8.50;;
13208;SDS011;6669;42.678;23.332;2023-07-08T00:12:50;9.48;;;8.52;;
13208;SDS011;6669;42.678;23.332;2023-07-08T00:15:21;9.93;;;8.93;;
13208;SDS011;6669;42.678;23.332;2023-07-08T00:17:51;9.73;;;8.73;;
13208;SDS011;6669;42.678;23.332;2023-07-08T00:20:21;9.13;;;8.13;;
13208;SDS011;6669;42.678;23.332;2023-07-08T00:22:55;9.70;;;8.73;;
13208;SDS011;6669;42.678;23.332;2023-07-08T00:25:24;11.60;;;8.07;;
13208;SDS011;6669;42.678;23.332;2023-07-08T00:27:52;10.43;;;9.32;;
13208;SDS011;6669;42.678;23.332;2023-07-08T00:30:21;9.43;;;8.52;;
13208;SDS011;6669;42.678;23.332;2023-07-08T00:32:50;9.35;;;8.45;;
13208;SDS011;6669;42.678;23.332;2023-07-08T00:35:21;8.85;;;8.02;;
13208;SDS011;6669;42.678;23.332;2023-07-08T00:37:51;9.18;;;8.00;;
13208;SDS011;6669;42.678;23.332;2023-07-08T00:40:20;10.60;;;7.85;;
13208;SDS011;6669;42.678;23.332;2023-07-08T00:42:52;9.60;;;8.65;;
13208;SDS011;6669;42.678;23.332;2023-07-08T00:45:32;9.88;;;8.85;;
13208;SDS011;6669;42.678;23.332;2023-07-08T00:48:28;12.73;;;8.80;;
13208;SDS011;6669;42.678;23.332;2023-07-08T00:50:57;8.68;;;7.90;;
13208;SDS011;6669;42.678;23.332;2023-07-08T00:53:27;9.60;;;8.70;;
13208;SDS011;6669;42.678;23.332;2023-07-08T00:55:57;9.48;;;8.57;;
13208;SDS011;6669;42.678;23.332;2023-07-08T00:58:31;9.05;;;8.25;;
13208;SDS011;6669;42.678;23.332;2023-07-08T01:01:03;9.35;;;8.40;;
13208;SDS011;6669;42.678;23.332;2023-07-08T01:03:33;9.35;;;8.38;;
13208;SDS011;6669;42.678;23.332;2023-07-08T01:06:08;9.05;;;8.13;;
13208;SDS011;6669;42.678;23.332;2023-07-08T01:08:36;9.05;;;8.20;;
13208;SDS011;6669;42.678;23.332;2023-07-08T01:11:04;8.60;;;7.70;;
13208;SDS011;6669;42.678;23.332;2023-07-08T01:13:35;8.52;;;7.63;;
13208;SDS011;6669;42.678;23.332;2023-07-08T01:16:07;8.55;;;7.65;;
13208;SDS011;6669;42.678;23.332;2023-07-08T01:18:36;8.80;;;7.90;;
13208;SDS011;6669;42.678;23.332;2023-07-08T01:21:06;8.75;;;7.82;;
13208;SDS011;6669;42.678;23.332;2023-07-08T01:23:57;9.38;;;8.45;;
13208;SDS011;6669;42.678;23.332;2023-07-08T01:26:26;7.47;;;6.72;;
13208;SDS011;6669;42.678;23.332;2023-07-08T01:28:56;8.00;;;7.18;;
13208;SDS011;6669;42.678;23.332;2023-07-08T01:31:25;8.95;;;8.05;;
13208;SDS011;6669;42.678;23.332;2023-07-08T01:33:53;7.68;;;6.97;;
13208;SDS011;6669;42.678;23.332;2023-07-08T01:36:21;8.82;;;7.93;;
13208;SDS011;6669;42.678;23.332;2023-07-08T01:38:51;9.15;;;8.13;;
13208;SDS011;6669;42.678;23.332;2023-07-08T01:41:21;9.15;;;8.25;;
13208;SDS011;6669;42.678;23.332;2023-07-08T01:43:49;9.23;;;8.32;;
13208;SDS011;6669;42.678;23.332;2023-07-08T01:46:18;8.82;;;7.60;;
13208;SDS011;6669;42.678;23.332;2023-07-08T01:48:51;8.00;;;7.30;;
13208;SDS011;6669;42.678;23.332;2023-07-08T01:51:20;8.68;;;7.85;;
13208;SDS011;6669;42.678;23.332;2023-07-08T01:53:49;8.77;;;7.97;;
13208;SDS011;6669;42.678;23.332;2023-07-08T01:56:17;7.93;;;7.18;;
13208;SDS011;6669;42.678;23.332;2023-07-08T01:58:47;8.10;;;7.22;;
13208;SDS011;6669;42.678;23.332;2023-07-08T02:01:15;8.00;;;7.20;;
13208;SDS011;6669;42.678;23.332;2023-07-08T02:03:43;8.23;;;7.53;;
13208;SDS011;6669;42.678;23.332;2023-07-08T02:06:12;8.57;;;7.78;;
13208;SDS011;6669;42.678;23.332;2023-07-08T02:08:40;8.50;;;7.60;;
13208;SDS011;6669;42.678;23.332;2023-07-08T02:11:08;8.38;;;7.57;;
13208;SDS011;6669;42.678;23.332;2023-07-08T02:13:36;11.23;;;7.20;;
13208;SDS011;6669;42.678;23.332;2023-07-08T02:16:07;7.90;;;7.20;;
13208;SDS011;6669;42.678;23.332;2023-07-08T02:18:35;7.97;;;7.15;;
13208;SDS011;6669;42.678;23.332;2023-07-08T02:21:03;6.93;;;6.22;;
13208;SDS011;6669;42.678;23.332;2023-07-08T02:23:32;7.68;;;6.93;;
13208;SDS011;6669;42.678;23.332;2023-07-08T02:26:00;7.75;;;7.05;;
13208;SDS011;6669;42.678;23.332;2023-07-08T02:28:28;7.72;;;6.95;;
13208;SDS011;6669;42.678;23.332;2023-07-08T02:30:55;7.35;;;6.55;;
13208;SDS011;6669;42.678;23.332;2023-07-08T02:33:26;8.07;;;7.18;;
13208;SDS011;6669;42.678;23.332;2023-07-08T02:35:59;7.97;;;7.18;;
13208;SDS011;6669;42.678;23.332;2023-07-08T02:38:28;8.10;;;7.30;;
13208;SDS011;6669;42.678;23.332;2023-07-08T02:40:56;8.45;;;6.88;;
13208;SDS011;6669;42.678;23.332;2023-07-08T02:43:25;6.90;;;6.20;;
13208;SDS011;6669;42.678;23.332;2023-07-08T02:45:53;7.35;;;6.60;;
13208;SDS011;6669;42.678;23.332;2023-07-08T02:48:21;8.50;;;7.20;;
13208;SDS011;6669;42.678;23.332;2023-07-08T02:50:51;7.82;;;6.72;;
13208;SDS011;6669;42.678;23.332;2023-07-08T02:53:26;7.75;;;7.05;;
13208;SDS011;6669;42.678;23.332;2023-07-08T02:55:54;8.07;;;7.35;;
13208;SDS011;6669;42.678;23.332;2023-07-08T02:58:22;7.68;;;6.88;;
13208;SDS011;6669;42.678;23.332;2023-07-08T03:00:51;7.13;;;6.45;;
13208;SDS011;6669;42.678;23.332;2023-07-08T03:03:20;8.13;;;7.43;;
13208;SDS011;6669;42.678;23.332;2023-07-08T03:05:56;7.68;;;7.07;;
13208;SDS011;6669;42.678;23.332;2023-07-08T03:08:26;8.20;;;7.40;;
13208;SDS011;6669;42.678;23.332;2023-07-08T03:10:55;7.20;;;6.50;;
13208;SDS011;6669;42.678;23.332;2023-07-08T03:13:26;8.23;;;7.53;;
13208;SDS011;6669;42.678;23.332;2023-07-08T03:15:54;8.18;;;7.00;;
13208;SDS011;6669;42.678;23.332;2023-07-08T03:18:23;9.30;;;7.28;;
13208;SDS011;6669;42.678;23.332;2023-07-08T03:20:53;7.05;;;6.35;;
13208;SDS011;6669;42.678;23.332;2023-07-08T03:23:24;7.68;;;6.78;;
13208;SDS011;6669;42.678;23.332;2023-07-08T03:25:52;7.13;;;6.43;;
13208;SDS011;6669;42.678;23.332;2023-07-08T03:28:20;7.40;;;6.20;;
13208;SDS011;6669;42.678;23.332;2023-07-08T03:30:51;6.60;;;5.70;;
13208;SDS011;6669;42.678;23.332;2023-07-08T03:33:20;6.65;;;5.78;;
13208;SDS011;6669;42.678;23.332;2023-07-08T03:35:48;7.53;;;6.32;;
13208;SDS011;6669;42.678;23.332;2023-07-08T03:38:16;6.80;;;6.10;;
13208;SDS011;6669;42.678;23.332;2023-07-08T03:40:46;6.40;;;5.80;;
13208;SDS011;6669;42.678;23.332;2023-07-08T03:43:14;6.13;;;5.53;;
13208;SDS011;6669;42.678;23.332;2023-07-08T03:45:43;6.78;;;6.07;;
13208;SDS011;6669;42.678;23.332;2023-07-08T03:48:11;6.43;;;5.68;;
13208;SDS011;6669;42.678;23.332;2023-07-08T03:50:39;7.50;;;5.93;;
13208;SDS011;6669;42.678;23.332;2023-07-08T03:53:08;6.65;;;6.05;;
13208;SDS011;6669;42.678;23.332;2023-07-08T03:55:36;5.57;;;5.13;;
13208;SDS011;6669;42.678;23.332;2023-07-08T03:58:05;7.15;;;5.82;;
13208;SDS011;6669;42.678;23.332;2023-07-08T04:00:35;5.25;;;4.82;;
13208;SDS011;6669;42.678;23.332;2023-07-08T04:03:03;7.07;;;5.20;;
13208;SDS011;6669;42.678;23.332;2023-07-08T04:05:31;7.07;;;5.60;;
13208;SDS011;6669;42.678;23.332;2023-07-08T04:07:59;6.03;;;5.07;;
13208;SDS011;6669;42.678;23.332;2023-07-08T04:10:27;5.88;;;5.28;;
13208;SDS011;6669;42.678;23.332;2023-07-08T04:12:55;5.53;;;5.03;;
13208;SDS011;6669;42.678;23.332;2023-07-08T04:15:24;5.50;;;5.00;;
13208;SDS011;6669;42.678;23.332;2023-07-08T04:17:54;6.00;;;5.20;;
13208;SDS011;6669;42.678;23.332;2023-07-08T04:20:23;5.80;;;5.25;;
13208;SDS011;6669;42.678;23.332;2023-07-08T04:22:52;6.72;;;5.53;;
13208;SDS011;6669;42.678;23.332;2023-07-08T04:25:20;6.30;;;5.65;;
13208;SDS011;6669;42.678;23.332;2023-07-08T04:27:54;6.85;;;5.75;;
13208;SDS011;6669;42.678;23.332;2023-07-08T04:30:23;6.35;;;5.65;;
13208;SDS011;6669;42.678;23.332;2023-07-08T04:32:54;6.30;;;5.70;;
13208;SDS011;6669;42.678;23.332;2023-07-08T04:35:22;7.20;;;5.60;;
13208;SDS011;6669;42.678;23.332;2023-07-08T04:37:50;7.15;;;5.85;;
13208;SDS011;6669;42.678;23.332;2023-07-08T04:40:19;6.50;;;5.40;;
13208;SDS011;6669;42.678;23.332;2023-07-08T04:42:48;5.60;;;5.10;;
13208;SDS011;6669;42.678;23.332;2023-07-08T04:45:17;6.43;;;5.72;;
13208;SDS011;6669;42.678;23.332;2023-07-08T04:47:48;5.95;;;5.45;;
13208;SDS011;6669;42.678;23.332;2023-07-08T04:50:19;5.80;;;5.30;;
13208;SDS011;6669;42.678;23.332;2023-07-08T04:52:47;5.82;;;5.22;;
13208;SDS011;6669;42.678;23.332;2023-07-08T04:55:16;6.18;;;5.50;;
13208;SDS011;6669;42.678;23.332;2023-07-08T04:57:45;5.72;;;5.22;;
13208;SDS011;6669;42.678;23.332;2023-07-08T05:00:13;5.88;;;5.38;;
13208;SDS011;6669;42.678;23.332;2023-07-08T05:02:43;6.20;;;5.40;;
13208;SDS011;6669;42.678;23.332;2023-07-08T05:05:13;5.85;;;5.30;;
13208;SDS011;6669;42.678;23.332;2023-07-08T05:07:41;6.28;;;5.68;;
13208;SDS011;6669;42.678;23.332;2023-07-08T05:10:09;6.28;;;5.28;;
13208;SDS011;6669;42.678;23.332;2023-07-08T05:12:39;6.20;;;5.60;;
13208;SDS011;6669;42.678;23.332;2023-07-08T05:15:07;5.05;;;4.50;;
13208;SDS011;6669;42.678;23.332;2023-07-08T05:17:36;5.57;;;5.03;;
13208;SDS011;6669;42.678;23.332;2023-07-08T05:20:05;5.60;;;5.10;;
13208;SDS011;6669;42.678;23.332;2023-07-08T05:22:36;6.50;;;5.80;;
13208;SDS011;6669;42.678;23.332;2023-07-08T05:25:05;5.55;;;5.05;;
13208;SDS011;6669;42.678;23.332;2023-07-08T05:27:33;5.95;;;5.18;;
13208;SDS011;6669;42.678;23.332;2023-07-08T05:30:01;5.15;;;4.65;;
13208;SDS011;6669;42.678;23.332;2023-07-08T05:32:32;5.30;;;4.80;;
13208;SDS011;6669;42.678;23.332;2023-07-08T05:35:01;5.68;;;5.18;;
13208;SDS011;6669;42.678;23.332;2023-07-08T05:37:29;5.53;;;5.03;;
13208;SDS011;6669;42.678;23.332;2023-07-08T05:39:58;6.07;;;5.47;;
13208;SDS011;6669;42.678;23.332;2023-07-08T05:42:31;5.57;;;5.05;;
13208;SDS011;6669;42.678;23.332;2023-07-08T05:44:58;5.30;;;4.80;;
13208;SDS011;6669;42.678;23.332;2023-07-08T05:47:27;5.00;;;4.50;;
13208;SDS011;6669;42.678;23.332;2023-07-08T05:49:55;4.57;;;4.18;;
13208;SDS011;6669;42.678;23.332;2023-07-08T05:52:23;5.65;;;4.53;;
13208;SDS011;6669;42.678;23.332;2023-07-08T05:54:51;4.80;;;4.30;;
13208;SDS011;6669;42.678;23.332;2023-07-08T05:57:20;5.50;;;4.60;;
13208;SDS011;6669;42.678;23.332;2023-07-08T05:59:49;4.60;;;4.20;;
13208;SDS011;6669;42.678;23.332;2023-07-08T06:02:19;5.75;;;4.47;;
13208;SDS011;6669;42.678;23.332;2023-07-08T06:04:49;7.10;;;5.07;;
13208;SDS011;6669;42.678;23.332;2023-07-08T06:07:17;4.95;;;4.55;;
13208;SDS011;6669;42.678;23.332;2023-07-08T06:09:45;5.78;;;5.28;;
13208;SDS011;6669;42.678;23.332;2023-07-08T06:12:13;5.70;;;5.20;;
13208;SDS011;6669;42.678;23.332;2023-07-08T06:14:42;7.50;;;5.60;;
13208;SDS011;6669;42.678;23.332;2023-07-08T06:17:10;4.72;;;4.32;;
13208;SDS011;6669;42.678;23.332;2023-07-08T06:19:38;5.18;;;4.72;;
13208;SDS011;6669;42.678;23.332;2023-07-08T06:22:06;7.78;;;4.20;;
13208;SDS011;6669;42.678;23.332;2023-07-08T06:24:54;6.80;;;4.78;;
13208;SDS011;6669;42.678;23.332;2023-07-08T06:27:22;5.30;;;4.80;;
13208;SDS011;6669;42.678;23.332;2023-07-08T06:29:52;5.97;;;4.38;;
13208;SDS011;6669;42.678;23.332;2023-07-08T06:32:21;5.72;;;5.13;;
13208;SDS011;6669;42.678;23.332;2023-07-08T06:34:49;4.57;;;4.18;;
13208;SDS011;6669;42.678;23.332;2023-07-08T06:37:17;5.82;;;3.97;;
13208;SDS011;6669;42.678;23.332;2023-07-08T06:39:45;4.40;;;4.00;;
13208;SDS011;6669;42.678;23.332;2023-07-08T06:42:13;4.68;;;4.10;;
13208;SDS011;6669;42.678;23.332;2023-07-08T06:44:43;4.40;;;4.00;;
13208;SDS011;6669;42.678;23.332;2023-07-08T06:47:21;4.22;;;3.78;;
13208;SDS011;6669;42.678;23.332;2023-07-08T06:49:49;4.40;;;3.90;;
13208;SDS011;6669;42.678;23.332;2023-07-08T06:52:17;4.60;;;4.00;;
13208;SDS011;6669;42.678;23.332;2023-07-08T06:54:45;4.32;;;3.92;;
13208;SDS011;6669;42.678;23.332;2023-07-08T06:57:13;4.13;;;3.70;;
13208;SDS011;6669;42.678;23.332;2023-07-08T06:59:41;5.57;;;4.15;;
13208;SDS011;6669;42.678;23.332;2023-07-08T07:02:09;4.18;;;3.80;;
13208;SDS011;6669;42.678;23.332;2023-07-08T07:04:38;4.43;;;4.03;;
13208;SDS011;6669;42.678;23.332;2023-07-08T07:07:06;5.85;;;3.83;;
13208;SDS011;6669;42.678;23.332;2023-07-08T07:09:35;4.28;;;3.88;;
13208;SDS011;6669;42.678;23.332;2023-07-08T07:12:04;6.60;;;3.63;;
13208;SDS011;6669;42.678;23.332;2023-07-08T07:14:34;4.55;;;3.83;;
13208;SDS011;6669;42.678;23.332;2023-07-08T07:17:05;4.28;;;3.88;;
13208;SDS011;6669;42.678;23.332;2023-07-08T07:19:34;4.40;;;4.00;;
13208;SDS011;6669;42.678;23.332;2023-07-08T07:22:04;5.35;;;4.50;;
13208;SDS011;6669;42.678;23.332;2023-07-08T07:24:32;4.97;;;4.40;;
13208;SDS011;6669;42.678;23.332;2023-07-08T07:27:00;4.85;;;4.00;;
13208;SDS011;6669;42.678;23.332;2023-07-08T07:29:35;5.63;;;4.10;;
13208;SDS011;6669;42.678;23.332;2023-07-08T07:32:08;4.22;;;3.83;;
13208;SDS011;6669;42.678;23.332;2023-07-08T07:34:37;4.32;;;3.92;;
13208;SDS011;6669;42.678;23.332;2023-07-08T07:37:06;4.93;;;4.13;;
13208;SDS011;6669;42.678;23.332;2023-07-08T07:39:39;4.40;;;3.72;;
13208;SDS011;6669;42.678;23.332;2023-07-08T07:42:07;4.07;;;3.60;;
13208;SDS011;6669;42.678;23.332;2023-07-08T07:44:36;4.07;;;3.67;;
13208;SDS011;6669;42.678;23.332;2023-07-08T07:47:06;4.60;;;3.72;;
13208;SDS011;6669;42.678;23.332;2023-07-08T07:49:36;4.28;;;3.88;;
13208;SDS011;6669;42.678;23.332;2023-07-08T07:52:04;4.38;;;3.97;;
13208;SDS011;6669;42.678;23.332;2023-07-08T07:54:34;4.60;;;4.20;;
13208;SDS011;6669;42.678;23.332;2023-07-08T07:57:02;4.57;;;4.18;;
13208;SDS011;6669;42.678;23.332;2023-07-08T07:59:30;4.97;;;3.90;;
13208;SDS011;6669;42.678;23.332;2023-07-08T08:01:58;4.30;;;3.90;;
13208;SDS011;6669;42.678;23.332;2023-07-08T08:04:26;4.43;;;4.00;;
13208;SDS011;6669;42.678;23.332;2023-07-08T08:06:54;4.30;;;3.90;;
13208;SDS011;6669;42.678;23.332;2023-07-08T08:09:22;4.95;;;3.05;;
13208;SDS011;6669;42.678;23.332;2023-07-08T08:11:52;4.03;;;3.72;;
13208;SDS011;6669;42.678;23.332;2023-07-08T08:14:21;4.90;;;4.30;;
13208;SDS011;6669;42.678;23.332;2023-07-08T08:16:49;4.55;;;4.15;;
13208;SDS011;6669;42.678;23.332;2023-07-08T08:19:17;4.40;;;4.00;;
13208;SDS011;6669;42.678;23.332;2023-07-08T08:21:45;4.93;;;4.20;;
13208;SDS011;6669;42.678;23.332;2023-07-08T08:24:13;4.43;;;3.90;;
13208;SDS011;6669;42.678;23.332;2023-07-08T08:26:42;4.35;;;3.95;;
13208;SDS011;6669;42.678;23.332;2023-07-08T08:29:11;4.50;;;4.10;;
13208;SDS011;6669;42.678;23.332;2023-07-08T08:31:39;4.28;;;3.88;;
13208;SDS011;6669;42.678;23.332;2023-07-08T08:34:07;4.75;;;4.35;;
13208;SDS011;6669;42.678;23.332;2023-07-08T08:36:35;4.05;;;3.70;;
13208;SDS011;6669;42.678;23.332;2023-07-08T08:39:03;3.90;;;3.60;;
13208;SDS011;6669;42.678;23.332;2023-07-08T08:41:32;4.80;;;4.30;;
13208;SDS011;6669;42.678;23.332;2023-07-08T08:44:01;4.43;;;4.03;;
13208;SDS011;6669;42.678;23.332;2023-07-08T08:46:34;4.80;;;4.20;;
13208;SDS011;6669;42.678;23.332;2023-07-08T08:49:13;4.15;;;3.70;;
13208;SDS011;6669;42.678;23.332;2023-07-08T08:51:45;4.38;;;3.97;;
13208;SDS011;6669;42.678;23.332;2023-07-08T08:54:15;4.55;;;4.10;;
13208;SDS011;6669;42.678;23.332;2023-07-08T08:56:46;5.45;;;4.95;;
13208;SDS011;6669;42.678;23.332;2023-07-08T08:59:22;4.68;;;4.28;;
13208;SDS011;6669;42.678;23.332;2023-07-08T09:02:00;4.55;;;4.15;;
13208;SDS011;6669;42.678;23.332;2023-07-08T09:04:38;3.80;;;3.50;;
13208;SDS011;6669;42.678;23.332;2023-07-08T09:07:08;4.00;;;3.60;;
13208;SDS011;6669;42.678;23.332;2023-07-08T09:09:45;5.07;;;3.35;;
13208;SDS011;6669;42.678;23.332;2023-07-08T09:12:17;3.60;;;3.10;;
13208;SDS011;6669;42.678;23.332;2023-07-08T09:14:49;4.57;;;4.18;;
13208;SDS011;6669;42.678;23.332;2023-07-08T09:17:20;3.92;;;3.53;;
13208;SDS011;6669;42.678;23.332;2023-07-08T09:19:52;3.63;;;3.33;;
13208;SDS011;6669;42.678;23.332;2023-07-08T09:22:27;3.63;;;3.33;;
13208;SDS011;6669;42.678;23.332;2023-07-08T09:25:03;4.13;;;3.72;;
13208;SDS011;6669;42.678;23.332;2023-07-08T09:27:47;4.15;;;3.65;;
13208;SDS011;6669;42.678;23.332;2023-07-08T09:30:16;4.00;;;3.60;;
13208;SDS011;6669;42.678;23.332;2023-07-08T09:32:48;4.30;;;3.80;;
13208;SDS011;6669;42.678;23.332;2023-07-08T09:35:17;4.55;;;3.90;;
13208;SDS011;6669;42.678;23.332;2023-07-08T09:37:49;3.40;;;3.10;;
13208;SDS011;6669;42.678;23.332;2023-07-08T09:40:19;3.88;;;3.53;;
13208;SDS011;6669;42.678;23.332;2023-07-08T09:42:50;4.13;;;3.72;;
13208;SDS011;6669;42.678;23.332;2023-07-08T09:45:20;4.10;;;3.75;;
13208;SDS011;6669;42.678;23.332;2023-07-08T09:47:53;4.88;;;3.65;;
13208;SDS011;6669;42.678;23.332;2023-07-08T09:50:24;3.47;;;3.03;;
13208;SDS011;6669;42.678;23.332;2023-07-08T09:52:54;4.10;;;3.00;;
13208;SDS011;6669;42.678;23.332;2023-07-08T09:55:26;5.10;;;3.20;;
13208;SDS011;6669;42.678;23.332;2023-07-08T09:57:55;3.75;;;3.22;;
13208;SDS011;6669;42.678;23.332;2023-07-08T10:00:32;3.83;;;3.53;;
13208;SDS011;6669;42.678;23.332;2023-07-08T10:03:04;3.10;;;2.90;;
13208;SDS011;6669;42.678;23.332;2023-07-08T10:05:37;3.75;;;3.38;;
13208;SDS011;6669;42.678;23.332;2023-07-08T10:08:14;3.95;;;3.55;;
13208;SDS011;6669;42.678;23.332;2023-07-08T10:10:45;4.43;;;3.08;;
13208;SDS011;6669;42.678;23.332;2023-07-08T10:13:17;3.80;;;3.47;;
13208;SDS011;6669;42.678;23.332;2023-07-08T10:15:52;3.42;;;3.13;;
13208;SDS011;6669;42.678;23.332;2023-07-08T10:18:28;2.88;;;2.65;;
13208;SDS011;6669;42.678;23.332;2023-07-08T10:20:59;2.90;;;2.70;;
13208;SDS011;6669;42.678;23.332;2023-07-08T10:23:38;3.30;;;3.00;;
13208;SDS011;6669;42.678;23.332;2023-07-08T10:26:18;3.72;;;3.33;;
13208;SDS011;6669;42.678;23.332;2023-07-08T10:28:53;3.65;;;3.17;;
13208;SDS011;6669;42.678;23.332;2023-07-08T10:31:34;3.53;;;3.22;;
13208;SDS011;6669;42.678;23.332;2023-07-08T10:34:17;3.20;;;2.90;;
13208;SDS011;6669;42.678;23.332;2023-07-08T10:37:02;3.17;;;2.88;;
13208;SDS011;6669;42.678;23.332;2023-07-08T10:39:40;3.22;;;2.92;;
13208;SDS011;6669;42.678;23.332;2023-07-08T10:42:22;3.58;;;3.28;;
13208;SDS011;6669;42.678;23.332;2023-07-08T10:45:04;2.97;;;2.67;;
13208;SDS011;6669;42.678;23.332;2023-07-08T10:47:40;3.13;;;2.83;;
13208;SDS011;6669;42.678;23.332;2023-07-08T10:50:34;3.10;;;2.80;;
13208;SDS011;6669;42.678;23.332;2023-07-08T10:53:20;3.10;;;2.72;;
13208;SDS011;6669;42.678;23.332;2023-07-08T10:56:01;3.58;;;3.20;;
13208;SDS011;6669;42.678;23.332;2023-07-08T10:58:38;3.60;;;3.30;;
13208;SDS011;6669;42.678;23.332;2023-07-08T11:01:32;2.92;;;2.72;;
13208;SDS011;6669;42.678;23.332;2023-07-08T11:04:16;3.25;;;2.95;;
13208;SDS011;6669;42.678;23.332;2023-07-08T11:06:57;2.83;;;2.55;;
13208;SDS011;6669;42.678;23.332;2023-07-08T11:09:33;2.75;;;2.55;;
13208;SDS011;6669;42.678;23.332;2023-07-08T11:12:08;4.72;;;2.97;;
13208;SDS011;6669;42.678;23.332;2023-07-08T11:14:45;2.70;;;2.50;;
13208;SDS011;6669;42.678;23.332;2023-07-08T11:17:18;2.80;;;2.58;;
13208;SDS011;6669;42.678;23.332;2023-07-08T11:19:52;2.90;;;2.70;;
13208;SDS011;6669;42.678;23.332;2023-07-08T11:22:24;4.32;;;3.50;;
13208;SDS011;6669;42.678;23.332;2023-07-08T11:24:54;3.83;;;2.90;;
13208;SDS011;6669;42.678;23.332;2023-07-08T11:27:26;3.03;;;2.83;;
13208;SDS011;6669;42.678;23.332;2023-07-08T11:29:57;3.15;;;2.95;;
13208;SDS011;6669;42.678;23.332;2023-07-08T11:32:29;2.78;;;2.58;;
13208;SDS011;6669;42.678;23.332;2023-07-08T11:35:00;2.97;;;2.78;;
13208;SDS011;6669;42.678;23.332;2023-07-08T11:37:33;3.15;;;2.85;;
13208;SDS011;6669;42.678;23.332;2023-07-08T11:40:06;3.40;;;3.10;;
13208;SDS011;6669;42.678;23.332;2023-07-08T11:42:39;3.08;;;2.80;;
13208;SDS011;6669;42.678;23.332;2023-07-08T11:45:24;3.10;;;2.78;;
13208;SDS011;6669;42.678;23.332;2023-07-08T11:47:55;2.83;;;2.50;;
13208;SDS011;6669;42.678;23.332;2023-07-08T11:50:36;2.90;;;2.70;;
13208;SDS011;6669;42.678;23.332;2023-07-08T11:53:10;2.92;;;2.70;;
13208;SDS011;6669;42.678;23.332;2023-07-08T11:55:43;3.88;;;2.80;;
13208;SDS011;6669;42.678;23.332;2023-07-08T11:58:19;2.75;;;2.53;;
13208;SDS011;6669;42.678;23.332;2023-07-08T12:00:52;3.78;;;3.05;;
13208;SDS011;6669;42.678;23.332;2023-07-08T12:03:29;3.08;;;2.55;;
13208;SDS011;6669;42.678;23.332;2023-07-08T12:06:02;2.60;;;2.40;;
13208;SDS011;6669;42.678;23.332;2023-07-08T12:08:36;2.70;;;2.45;;
13208;SDS011;6669;42.678;23.332;2023-07-08T12:11:07;4.95;;;2.30;;
13208;SDS011;6669;42.678;23.332;2023-07-08T12:13:39;2.75;;;2.40;;
13208;SDS011;6669;42.678;23.332;2023-07-08T12:16:08;3.00;;;2.70;;
13208;SDS011;6669;42.678;23.332;2023-07-08T12:18:38;3.78;;;2.67;;
13208;SDS011;6669;42.678;23.332;2023-07-08T12:21:12;4.10;;;2.63;;
13208;SDS011;6669;42.678;23.332;2023-07-08T12:23:45;2.60;;;2.28;;
13208;SDS011;6669;42.678;23.332;2023-07-08T12:26:14;2.97;;;2.25;;
13208;SDS011;6669;42.678;23.332;2023-07-08T12:28:43;4.03;;;2.70;;
13208;SDS011;6669;42.678;23.332;2023-07-08T12:31:13;2.33;;;2.13;;
13208;SDS011;6669;42.678;23.332;2023-07-08T12:33:44;3.60;;;2.30;;
13208;SDS011;6669;42.678;23.332;2023-07-08T12:36:14;3.00;;;2.70;;
13208;SDS011;6669;42.678;23.332;2023-07-08T12:38:48;2.53;;;2.33;;
13208;SDS011;6669;42.678;23.332;2023-07-08T12:41:18;2.38;;;2.17;;
13208;SDS011;6669;42.678;23.332;2023-07-08T12:43:48;3.00;;;2.20;;
13208;SDS011;6669;42.678;23.332;2023-07-08T12:46:18;2.70;;;2.10;;
13208;SDS011;6669;42.678;23.332;2023-07-08T12:48:48;2.60;;;2.40;;
13208;SDS011;6669;42.678;23.332;2023-07-08T12:51:17;2.30;;;2.00;;
13208;SDS011;6669;42.678;23.332;2023-07-08T12:53:49;1.95;;;1.85;;
13208;SDS011;6669;42.678;23.332;2023-07-08T12:56:18;2.17;;;2.00;;
13208;SDS011;6669;42.678;23.332;2023-07-08T12:58:49;4.32;;;2.00;;
13208;SDS011;6669;42.678;23.332;2023-07-08T13:01:19;3.97;;;2.35;;
13208;SDS011;6669;42.678;23.332;2023-07-08T13:03:50;2.30;;;2.10;;
13208;SDS011;6669;42.678;23.332;2023-07-08T13:06:25;2.53;;;2.33;;
13208;SDS011;6669;42.678;23.332;2023-07-08T13:08:58;2.28;;;2.08;;
13208;SDS011;6669;42.678;23.332;2023-07-08T13:11:30;2.17;;;1.98;;
13208;SDS011;6669;42.678;23.332;2023-07-08T13:13:59;2.42;;;1.90;;
13208;SDS011;6669;42.678;23.332;2023-07-08T13:16:33;2.10;;;1.90;;
13208;SDS011;6669;42.678;23.332;2023-07-08T13:19:02;3.25;;;1.92;;
13208;SDS011;6669;42.678;23.332;2023-07-08T13:21:31;2.78;;;1.98;;
13208;SDS011;6669;42.678;23.332;2023-07-08T13:24:02;2.63;;;1.92;;
13208;SDS011;6669;42.678;23.332;2023-07-08T13:26:35;2.80;;;2.50;;
13208;SDS011;6669;42.678;23.332;2023-07-08T13:29:04;2.42;;;2.00;;
13208;SDS011;6669;42.678;23.332;2023-07-08T13:31:46;2.10;;;1.85;;
13208;SDS011;6669;42.678;23.332;2023-07-08T13:34:17;2.42;;;2.22;;
13208;SDS011;6669;42.678;23.332;2023-07-08T13:36:49;2.13;;;1.92;;
13208;SDS011;6669;42.678;23.332;2023-07-08T13:39:22;2.30;;;2.10;;
13208;SDS011;6669;42.678;23.332;2023-07-08T13:41:54;2.47;;;2.28;;
13208;SDS011;6669;42.678;23.332;2023-07-08T13:44:22;2.20;;;1.85;;
13208;SDS011;6669;42.678;23.332;2023-07-08T13:46:51;2.10;;;1.90;;
13208;SDS011;6669;42.678;23.332;2023-07-08T13:49:22;2.28;;;2.08;;
13208;SDS011;6669;42.678;23.332;2023-07-08T13:52:04;2.20;;;2.00;;
13208;SDS011;6669;42.678;23.332;2023-07-08T13:54:37;2.13;;;1.92;;
13208;SDS011;6669;42.678;23.332;2023-07-08T13:57:09;2.35;;;1.88;;
13208;SDS011;6669;42.678;23.332;2023-07-08T13:59:39;2.53;;;2.25;;
13208;SDS011;6669;42.678;23.332;2023-07-08T14:02:13;3.38;;;2.20;;
13208;SDS011;6669;42.678;23.332;2023-07-08T14:04:43;1.70;;;1.60;;
13208;SDS011;6669;42.678;23.332;2023-07-08T14:07:13;2.00;;;1.90;;
13208;SDS011;6669;42.678;23.332;2023-07-08T14:09:45;2.58;;;1.90;;
13208;SDS011;6669;42.678;23.332;2023-07-08T14:12:13;2.00;;;1.80;;
13208;SDS011;6669;42.678;23.332;2023-07-08T14:14:41;2.00;;;1.90;;
13208;SDS011;6669;42.678;23.332;2023-07-08T14:17:10;3.30;;;2.10;;
13208;SDS011;6669;42.678;23.332;2023-07-08T14:19:41;2.65;;;2.40;;
13208;SDS011;6669;42.678;23.332;2023-07-08T14:22:22;2.60;;;1.67;;
13208;SDS011;6669;42.678;23.332;2023-07-08T14:24:53;2.20;;;2.00;;
13208;SDS011;6669;42.678;23.332;2023-07-08T14:27:22;2.65;;;1.90;;
13208;SDS011;6669;42.678;23.332;2023-07-08T14:29:50;2.40;;;2.20;;
13208;SDS011;6669;42.678;23.332;2023-07-08T14:32:20;2.17;;;1.98;;
13208;SDS011;6669;42.678;23.332;2023-07-08T14:34:51;2.55;;;2.00;;
13208;SDS011;6669;42.678;23.332;2023-07-08T14:37:20;3.08;;;1.80;;
13208;SDS011;6669;42.678;23.332;2023-07-08T14:39:49;3.42;;;2.17;;
13208;SDS011;6669;42.678;23.332;2023-07-08T14:42:19;3.30;;;1.98;;
13208;SDS011;6669;42.678;23.332;2023-07-08T14:44:48;2.90;;;2.30;;
13208;SDS011;6669;42.678;23.332;2023-07-08T14:47:19;3.80;;;1.83;;
13208;SDS011;6669;42.678;23.332;2023-07-08T14:49:48;2.92;;;1.90;;
13208;SDS011;6669;42.678;23.332;2023-07-08T14:52:16;2.10;;;1.90;;
13208;SDS011;6669;42.678;23.332;2023-07-08T14:54:44;2.40;;;2.20;;
13208;SDS011;6669;42.678;23.332;2023-07-08T14:57:14;3.42;;;2.70;;
13208;SDS011;6669;42.678;23.332;2023-07-08T14:59:45;4.43;;;2.17;;
13208;SDS011;6669;42.678;23.332;2023-07-08T15:02:17;3.00;;;1.73;;
13208;SDS011;6669;42.678;23.332;2023-07-08T15:04:47;2.95;;;1.80;;
13208;SDS011;6669;42.678;23.332;2023-07-08T15:07:18;2.10;;;1.90;;
13208;SDS011;6669;42.678;23.332;2023-07-08T15:09:46;2.20;;;1.75;;